SHT22K EGLL-EGJB
Flight info
| Callsign | SHT22K |
|---|---|
| Flight time | 0h 33m |
| Altitude | 23000 |
| Route | GOGSI N621 SAM/N0389F220 N63 LELNA |
| Aircraft | A319/M-SDE3FGHIRWY/LB1 |
Departure
| Time | 2026-05-04 09:17 |
|---|---|
| Airport | London Heathrow Airport (EGLL) |
Arrival
| Time | 2026-05-04 09:51 |
|---|---|
| Airport | Guernsey Airport (EGJB) |
| Time | Latitude | Longitude | Altitude | Speed | Heading |
|---|---|---|---|---|---|
| 2026-05-04 08:42 | 51.47393 | -0.48760 | 86 ft | 0 kts | 180° |
| 2026-05-04 09:03 | 51.47406 | -0.48760 | 90 ft | 4 kts | 180° |
| 2026-05-04 09:04 | 51.47433 | -0.48760 | 89 ft | 4 kts | 180° |
| 2026-05-04 09:04 | 51.47456 | -0.48760 | 88 ft | 3 kts | 179° |
| 2026-05-04 09:04 | 51.47478 | -0.48770 | 90 ft | 4 kts | 126° |
| 2026-05-04 09:04 | 51.47486 | -0.48807 | 89 ft | 3 kts | 90° |
| 2026-05-04 09:05 | 51.47486 | -0.48843 | 89 ft | 1 kts | 89° |
| 2026-05-04 09:05 | 51.47486 | -0.48844 | 89 ft | 0 kts | 89° |
| 2026-05-04 09:07 | 51.47486 | -0.48833 | 89 ft | 3 kts | 89° |
| 2026-05-04 09:08 | 51.47487 | -0.48767 | 88 ft | 9 kts | 88° |
| 2026-05-04 09:08 | 51.47488 | -0.48646 | 86 ft | 12 kts | 89° |
| 2026-05-04 09:08 | 51.47482 | -0.48508 | 88 ft | 12 kts | 110° |
| 2026-05-04 09:08 | 51.47404 | -0.48472 | 86 ft | 14 kts | 180° |
| 2026-05-04 09:09 | 51.47300 | -0.48473 | 86 ft | 15 kts | 180° |
| 2026-05-04 09:09 | 51.47195 | -0.48473 | 86 ft | 15 kts | 180° |
| 2026-05-04 09:09 | 51.47095 | -0.48471 | 86 ft | 14 kts | 179° |
| 2026-05-04 09:09 | 51.46998 | -0.48469 | 86 ft | 14 kts | 179° |
| 2026-05-04 09:10 | 51.46903 | -0.48469 | 86 ft | 14 kts | 179° |
| 2026-05-04 09:10 | 51.46807 | -0.48468 | 86 ft | 15 kts | 180° |
| 2026-05-04 09:10 | 51.46691 | -0.48460 | 90 ft | 19 kts | 165° |
| 2026-05-04 09:10 | 51.46654 | -0.48260 | 87 ft | 23 kts | 89° |
| 2026-05-04 09:11 | 51.46655 | -0.47996 | 86 ft | 23 kts | 89° |
| 2026-05-04 09:11 | 51.46655 | -0.47714 | 86 ft | 27 kts | 90° |
| 2026-05-04 09:11 | 51.46656 | -0.47448 | 86 ft | 24 kts | 89° |
| 2026-05-04 09:11 | 51.46657 | -0.47177 | 88 ft | 21 kts | 90° |
| 2026-05-04 09:12 | 51.46658 | -0.46918 | 88 ft | 25 kts | 90° |
| 2026-05-04 09:12 | 51.46659 | -0.46629 | 87 ft | 23 kts | 90° |
| 2026-05-04 09:14 | 51.46664 | -0.44900 | 87 ft | 16 kts | 90° |
| 2026-05-04 09:14 | 51.46664 | -0.44778 | 87 ft | 8 kts | 92° |
| 2026-05-04 09:14 | 51.46648 | -0.44725 | 87 ft | 0 kts | 135° |
| 2026-05-04 09:15 | 51.46647 | -0.44723 | 88 ft | 1 kts | 137° |
| 2026-05-04 09:15 | 51.46632 | -0.44712 | 87 ft | 4 kts | 162° |
| 2026-05-04 09:15 | 51.46598 | -0.44737 | 90 ft | 8 kts | 219° |
| 2026-05-04 09:15 | 51.46552 | -0.44798 | 90 ft | 9 kts | 219° |
| 2026-05-04 09:17 | 51.46413 | -0.52909 | 1975 ft | 178 kts | 270° |
| 2026-05-04 09:18 | 51.46390 | -0.55027 | 2412 ft | 203 kts | 269° |
| 2026-05-04 09:18 | 51.46365 | -0.57434 | 2950 ft | 228 kts | 269° |
| 2026-05-04 09:18 | 51.46337 | -0.60120 | 3581 ft | 253 kts | 269° |
| 2026-05-04 09:18 | 51.46171 | -0.63007 | 4462 ft | 265 kts | 257° |
| 2026-05-04 09:19 | 51.45724 | -0.65898 | 5605 ft | 268 kts | 255° |
| 2026-05-04 09:19 | 51.45461 | -0.68864 | 6695 ft | 272 kts | 268° |
| 2026-05-04 09:19 | 51.45427 | -0.71914 | 7752 ft | 274 kts | 268° |
| 2026-05-04 09:19 | 51.45399 | -0.74989 | 8815 ft | 277 kts | 268° |
| 2026-05-04 09:20 | 51.45318 | -0.78088 | 9831 ft | 280 kts | 260° |
| 2026-05-04 09:20 | 51.44724 | -0.81117 | 10434 ft | 296 kts | 241° |
| 2026-05-04 09:20 | 51.43376 | -0.83739 | 10796 ft | 317 kts | 217° |
| 2026-05-04 09:20 | 51.41563 | -0.85841 | 11508 ft | 326 kts | 217° |
| 2026-05-04 09:21 | 51.39739 | -0.88043 | 12353 ft | 330 kts | 216° |
| 2026-05-04 09:21 | 51.37875 | -0.90229 | 13206 ft | 334 kts | 216° |
| 2026-05-04 09:21 | 51.35966 | -0.92400 | 14014 ft | 339 kts | 215° |
| 2026-05-04 09:21 | 51.34025 | -0.94581 | 14740 ft | 343 kts | 214° |
| 2026-05-04 09:22 | 51.32080 | -0.96749 | 15491 ft | 346 kts | 214° |
| 2026-05-04 09:22 | 51.30091 | -0.98948 | 16239 ft | 349 kts | 214° |
| 2026-05-04 09:22 | 51.28074 | -1.01155 | 16985 ft | 352 kts | 213° |
| 2026-05-04 09:22 | 51.26019 | -1.03324 | 17726 ft | 356 kts | 212° |
| 2026-05-04 09:23 | 51.23923 | -1.05480 | 18441 ft | 359 kts | 212° |
| 2026-05-04 09:23 | 51.21809 | -1.07633 | 19087 ft | 363 kts | 212° |
| 2026-05-04 09:23 | 51.19672 | -1.09811 | 19755 ft | 366 kts | 212° |
| 2026-05-04 09:23 | 51.17524 | -1.12007 | 20426 ft | 369 kts | 212° |
| 2026-05-04 09:25 | 51.02187 | -1.27719 | 23029 ft | 372 kts | 212° |
| 2026-05-04 09:25 | 51.00009 | -1.29936 | 23030 ft | 372 kts | 212° |
| 2026-05-04 09:26 | 50.97834 | -1.32150 | 23031 ft | 371 kts | 212° |
| 2026-05-04 09:26 | 50.95653 | -1.34349 | 23030 ft | 371 kts | 210° |
| 2026-05-04 09:26 | 50.93359 | -1.36242 | 23030 ft | 371 kts | 207° |
| 2026-05-04 09:26 | 50.91046 | -1.38086 | 23029 ft | 371 kts | 207° |
| 2026-05-04 09:27 | 50.88740 | -1.39925 | 23027 ft | 371 kts | 207° |
| 2026-05-04 09:27 | 50.86434 | -1.41768 | 23047 ft | 371 kts | 206° |
| 2026-05-04 09:27 | 50.84132 | -1.43607 | 23045 ft | 371 kts | 206° |
| 2026-05-04 09:27 | 50.81829 | -1.45442 | 23042 ft | 370 kts | 206° |
| 2026-05-04 09:28 | 50.79525 | -1.47274 | 23035 ft | 370 kts | 206° |
| 2026-05-04 09:28 | 50.77223 | -1.49102 | 23033 ft | 370 kts | 206° |
| 2026-05-04 09:28 | 50.74925 | -1.50927 | 23030 ft | 370 kts | 206° |
| 2026-05-04 09:28 | 50.72627 | -1.52748 | 23029 ft | 370 kts | 206° |
| 2026-05-04 09:29 | 50.70326 | -1.54565 | 23027 ft | 370 kts | 206° |
| 2026-05-04 09:29 | 50.68026 | -1.56380 | 23030 ft | 370 kts | 206° |
| 2026-05-04 09:29 | 50.65726 | -1.58198 | 23028 ft | 370 kts | 206° |
| 2026-05-04 09:29 | 50.63423 | -1.60016 | 23029 ft | 370 kts | 206° |
| 2026-05-04 09:30 | 50.61153 | -1.61810 | 23015 ft | 370 kts | 206° |
| 2026-05-04 09:30 | 50.58819 | -1.63651 | 23013 ft | 370 kts | 206° |
| 2026-05-04 09:30 | 50.56511 | -1.65466 | 23012 ft | 371 kts | 206° |
| 2026-05-04 09:30 | 50.54202 | -1.67276 | 23009 ft | 371 kts | 206° |
| 2026-05-04 09:31 | 50.51924 | -1.69058 | 23012 ft | 371 kts | 206° |
| 2026-05-04 09:31 | 50.49609 | -1.70868 | 23013 ft | 371 kts | 206° |
| 2026-05-04 09:31 | 50.47297 | -1.72680 | 23014 ft | 371 kts | 206° |
| 2026-05-04 09:31 | 50.44980 | -1.74498 | 23015 ft | 372 kts | 206° |
| 2026-05-04 09:32 | 50.42663 | -1.76317 | 23015 ft | 372 kts | 206° |
| 2026-05-04 09:32 | 50.40349 | -1.78129 | 23026 ft | 372 kts | 206° |
| 2026-05-04 09:34 | 50.24131 | -1.90726 | 23035 ft | 371 kts | 205° |
| 2026-05-04 09:34 | 50.21820 | -1.92515 | 23034 ft | 371 kts | 205° |
| 2026-05-04 09:34 | 50.19509 | -1.94296 | 23033 ft | 371 kts | 205° |
| 2026-05-04 09:34 | 50.17198 | -1.96077 | 22869 ft | 370 kts | 205° |
| 2026-05-04 09:35 | 50.14898 | -1.97849 | 22471 ft | 365 kts | 205° |
| 2026-05-04 09:35 | 50.12630 | -1.99598 | 22088 ft | 363 kts | 205° |
| 2026-05-04 09:35 | 50.10375 | -2.01338 | 21719 ft | 361 kts | 205° |
| 2026-05-04 09:35 | 50.08158 | -2.03048 | 21355 ft | 359 kts | 205° |
| 2026-05-04 09:37 | 49.94031 | -2.17990 | 18364 ft | 357 kts | 226° |
| 2026-05-04 09:37 | 49.92387 | -2.20880 | 17655 ft | 358 kts | 226° |
| 2026-05-04 09:38 | 49.90744 | -2.23764 | 17010 ft | 356 kts | 226° |
| 2026-05-04 09:38 | 49.89109 | -2.26628 | 16362 ft | 354 kts | 226° |
| 2026-05-04 09:38 | 49.87479 | -2.29475 | 15727 ft | 352 kts | 226° |
| 2026-05-04 09:38 | 49.85855 | -2.32302 | 15088 ft | 350 kts | 226° |
| 2026-05-04 09:39 | 49.84236 | -2.35114 | 14452 ft | 348 kts | 226° |
| 2026-05-04 09:39 | 49.82633 | -2.37901 | 13822 ft | 345 kts | 226° |
| 2026-05-04 09:39 | 49.81039 | -2.40669 | 13144 ft | 343 kts | 226° |
| 2026-05-04 09:39 | 49.79458 | -2.43408 | 12523 ft | 339 kts | 226° |
| 2026-05-04 09:40 | 49.77891 | -2.46118 | 11911 ft | 336 kts | 226° |
| 2026-05-04 09:40 | 49.76337 | -2.48802 | 11301 ft | 333 kts | 226° |
| 2026-05-04 09:40 | 49.74814 | -2.51431 | 10704 ft | 331 kts | 226° |
| 2026-05-04 09:40 | 49.73280 | -2.54076 | 10260 ft | 325 kts | 226° |
| 2026-05-04 09:41 | 49.71815 | -2.56625 | 10135 ft | 310 kts | 226° |
| 2026-05-04 09:42 | 49.63052 | -2.73165 | 7683 ft | 275 kts | 231° |
| 2026-05-04 09:43 | 49.61874 | -2.75485 | 7227 ft | 273 kts | 231° |
| 2026-05-04 09:43 | 49.60718 | -2.77744 | 7003 ft | 262 kts | 230° |
| 2026-05-04 09:43 | 49.59618 | -2.79888 | 6878 ft | 248 kts | 230° |
| 2026-05-04 09:43 | 49.58569 | -2.81931 | 6655 ft | 239 kts | 230° |
| 2026-05-04 09:44 | 49.57542 | -2.83923 | 6223 ft | 237 kts | 230° |
| 2026-05-04 09:44 | 49.56509 | -2.85895 | 5741 ft | 235 kts | 227° |
| 2026-05-04 09:44 | 49.55168 | -2.87252 | 5301 ft | 232 kts | 195° |
| 2026-05-04 09:46 | 49.44889 | -2.87463 | 3310 ft | 187 kts | 155° |
| 2026-05-04 09:46 | 49.43831 | -2.86340 | 3132 ft | 185 kts | 134° |
| 2026-05-04 09:46 | 49.43126 | -2.84724 | 2950 ft | 179 kts | 112° |
| 2026-05-04 09:47 | 49.42855 | -2.82898 | 2763 ft | 169 kts | 93° |
| 2026-05-04 09:47 | 49.42894 | -2.81142 | 2635 ft | 165 kts | 88° |
| 2026-05-04 09:49 | 49.43227 | -2.69675 | 1423 ft | 127 kts | 87° |
| 2026-05-04 09:49 | 49.43268 | -2.68330 | 1250 ft | 125 kts | 86° |
| 2026-05-04 09:49 | 49.43311 | -2.67009 | 1087 ft | 123 kts | 87° |
| 2026-05-04 09:51 | 49.43506 | -2.59917 | 322 ft | 38 kts | 88° |
| 2026-05-04 09:51 | 49.43516 | -2.59530 | 332 ft | 37 kts | 88° |
| 2026-05-04 09:51 | 49.43524 | -2.59267 | 334 ft | 16 kts | 88° |
| 2026-05-04 09:51 | 49.43466 | -2.59198 | 334 ft | 11 kts | 176° |
| 2026-05-04 09:52 | 49.43423 | -2.59194 | 334 ft | 4 kts | 177° |
| 2026-05-04 09:52 | 49.43390 | -2.59205 | 331 ft | 5 kts | 208° |
| 2026-05-04 09:52 | 49.43372 | -2.59263 | 335 ft | 7 kts | 266° |
| 2026-05-04 09:52 | 49.43368 | -2.59359 | 334 ft | 11 kts | 266° |
| 2026-05-04 09:53 | 49.43365 | -2.59478 | 332 ft | 10 kts | 268° |
| 2026-05-04 09:53 | 49.43363 | -2.59577 | 329 ft | 6 kts | 267° |
| 2026-05-04 09:53 | 49.43345 | -2.59625 | 327 ft | 6 kts | 189° |
| 2026-05-04 09:53 | 49.43326 | -2.59623 | 330 ft | 4 kts | 177° |
| 2026-05-04 09:54 | 49.43294 | -2.59622 | 329 ft | 5 kts | 179° |
| 2026-05-04 09:54 | 49.43262 | -2.59621 | 328 ft | 3 kts | 178° |
| 2026-05-04 09:54 | 49.43253 | -2.59620 | 328 ft | 0 kts | 178° |